Terminal Aerodrome Forecast
Issued by NWS Greer, SC

Home | Current Version | Previous Version | Text Only | Print | Product List | Glossary On
Versions: 1 2 3 4 5 6 7 8 9 10 11 12 13 14 15 16 17 18 19 20 21 22 23 24 25 26
000
FTUS42 KGSP 071501 CCA
TAFGSP
TAF COR
KGSP 071501Z 0715/0812 00000KT P6SM SCT004 OVC040
     FM071600 11005KT P6SM SCT040
      TEMPO 0716/0719 BKN040
     FM071900 12004KT P6SM BKN035
     FM080200 VRB02KT 6SM BR BKN025
     FM080600 VRB02KT 2SM BR OVC020=

USA.gov is the U.S. government's official web portal to all federal, state and local government web resources and services.